Time;durP1;ratioP1;P1;durP2;ratioP2;P2;SDS_P1;SDS_P2;PMS_P1;PMS_P2;Temp;Humidity;BMP_temperature;BMP_pressure;BME280_temperature;BME280_humidity;BME280_pressure;Samples;Min_cycle;Max_cycle;Signal;HPM_P1;HPM_P2
2023/08/17 00:00:34;;;;;;;1.75;1.50;;;;;;;;;;5005955;28;20042;-80
2023/08/17 00:02:59;;;;;;;1.33;1.20;;;;;;;;;;5008245;28;20041;-80
2023/08/17 00:05:26;;;;;;;1.55;1.20;;;;;;;;;;5007995;28;20033;-81
2023/08/17 00:07:52;;;;;;;3.55;2.03;;;;;;;;;;5009300;28;20077;-82
2023/08/17 00:10:18;;;;;;;1.58;1.13;;;;;;;;;;5007615;28;20107;-81
2023/08/17 00:12:44;;;;;;;2.00;1.67;;;;;;;;;;5008748;28;20026;-82
2023/08/17 00:15:10;;;;;;;1.75;1.40;;;;;;;;;;5010104;28;20231;-79
2023/08/17 00:17:36;;;;;;;1.40;1.20;;;;;;;;;;5009146;28;20026;-81
2023/08/17 00:20:04;;;;;;;1.17;1.02;;;;;;;;;;5010494;28;20030;-80
2023/08/17 00:22:30;;;;;;;1.80;1.08;;;;;;;;;;5008728;28;20041;-80
2023/08/17 00:24:56;;;;;;;1.20;1.10;;;;;;;;;;5009160;28;20486;-81
2023/08/17 00:27:22;;;;;;;2.40;1.35;;;;;;;;;;5005088;28;20026;-80
2023/08/17 00:29:48;;;;;;;2.85;1.15;;;;;;;;;;5007560;28;20048;-81
2023/08/17 00:32:14;;;;;;;1.30;1.20;;;;;;;;;;5006667;28;20033;-80
2023/08/17 00:34:40;;;;;;;2.13;1.25;;;;;;;;;;5010699;28;20474;-81
2023/08/17 00:37:06;;;;;;;1.15;1.05;;;;;;;;;;5007588;28;20038;-81
2023/08/17 00:39:32;;;;;;;2.42;1.88;;;;;;;;;;5008943;28;20095;-81
2023/08/17 00:41:58;;;;;;;1.65;1.52;;;;;;;;;;5004939;28;20037;-81
2023/08/17 00:44:24;;;;;;;0.95;0.93;;;;;;;;;;5005012;28;20037;-81
2023/08/17 00:46:50;;;;;;;1.92;1.00;;;;;;;;;;5007427;28;20116;-80
2023/08/17 00:49:16;;;;;;;1.40;1.13;;;;;;;;;;5008405;28;20033;-81
2023/08/17 00:51:42;;;;;;;2.47;1.02;;;;;;;;;;5009332;28;20109;-80
2023/08/17 00:54:08;;;;;;;1.20;1.10;;;;;;;;;;5009309;28;20030;-81
2023/08/17 00:56:34;;;;;;;2.15;1.38;;;;;;;;;;5005392;28;20155;-80
2023/08/17 00:59:00;;;;;;;1.10;1.00;;;;;;;;;;5005007;28;20112;-80
2023/08/17 01:01:26;;;;;;;1.45;1.20;;;;;;;;;;5008154;28;20030;-80
2023/08/17 01:03:52;;;;;;;1.95;1.17;;;;;;;;;;5009454;28;20471;-81
2023/08/17 01:06:19;;;;;;;1.52;1.20;;;;;;;;;;5008639;28;20036;-81
2023/08/17 01:08:45;;;;;;;1.30;1.20;;;;;;;;;;5006510;28;20029;-81
2023/08/17 01:11:30;;;;;;;1.15;1.05;;;;;;;;;;5005071;28;20034;-81
2023/08/17 01:14:09;;;;;;;2.22;1.20;;;;;;;;;;5005902;28;20121;-80
2023/08/17 01:16:40;;;;;;;3.45;1.08;;;;;;;;;;5008391;28;20034;-81
2023/08/17 01:19:11;;;;;;;1.30;1.20;;;;;;;;;;5001506;28;20030;-80
2023/08/17 01:21:49;;;;;;;2.10;1.25;;;;;;;;;;5008244;28;20045;-81
2023/08/17 01:24:14;;;;;;;1.83;1.45;;;;;;;;;;5006216;28;20038;-80
2023/08/17 01:26:41;;;;;;;0.95;0.90;;;;;;;;;;5007685;28;20033;-81
2023/08/17 01:29:07;;;;;;;1.40;1.10;;;;;;;;;;5006314;28;20053;-81
2023/08/17 01:31:39;;;;;;;7.13;1.20;;;;;;;;;;5007709;28;20037;-80
2023/08/17 01:34:07;;;;;;;1.30;1.20;;;;;;;;;;5006676;28;20112;-81
2023/08/17 01:36:51;;;;;;;1.27;1.20;;;;;;;;;;4999316;28;20038;-80
2023/08/17 01:39:17;;;;;;;1.35;1.00;;;;;;;;;;5005854;28;20546;-81
2023/08/17 01:41:44;;;;;;;1.17;0.95;;;;;;;;;;5008491;28;20121;-80
2023/08/17 01:44:10;;;;;;;1.58;1.17;;;;;;;;;;5003478;28;20391;-82
2023/08/17 01:46:36;;;;;;;1.33;1.08;;;;;;;;;;5007314;28;20036;-89
2023/08/17 01:49:02;;;;;;;1.20;1.10;;;;;;;;;;5001624;28;20026;-89
2023/08/17 01:51:28;;;;;;;1.35;1.15;;;;;;;;;;5010346;28;20029;-88
2023/08/17 01:53:54;;;;;;;1.77;0.93;;;;;;;;;;5010606;28;20445;-89
2023/08/17 01:56:20;;;;;;;1.05;0.95;;;;;;;;;;5010105;28;20045;-90
2023/08/17 01:58:46;;;;;;;1.38;0.90;;;;;;;;;;5009348;28;20045;-89
2023/08/17 02:01:12;;;;;;;1.17;1.08;;;;;;;;;;5008812;28;20028;-89
2023/08/17 02:03:38;;;;;;;3.15;1.00;;;;;;;;;;5009029;28;20060;-89
2023/08/17 02:06:04;;;;;;;1.83;1.20;;;;;;;;;;5009938;28;20036;-88
2023/08/17 02:08:30;;;;;;;2.22;1.40;;;;;;;;;;5009093;28;20406;-89
2023/08/17 02:10:56;;;;;;;1.23;1.00;;;;;;;;;;5008521;28;20062;-89
2023/08/17 02:13:22;;;;;;;1.60;1.05;;;;;;;;;;5009470;28;20026;-88
2023/08/17 02:15:48;;;;;;;1.25;1.02;;;;;;;;;;5008247;28;20061;-89
2023/08/17 02:18:14;;;;;;;1.30;1.08;;;;;;;;;;5003829;28;20033;-87
2023/08/17 02:20:40;;;;;;;3.05;1.17;;;;;;;;;;5008802;28;20037;-86
2023/08/17 02:23:06;;;;;;;1.35;1.00;;;;;;;;;;5010773;28;20100;-88
2023/08/17 02:25:35;;;;;;;1.27;1.10;;;;;;;;;;5012304;28;20033;-88
2023/08/17 02:28:03;;;;;;;1.20;1.10;;;;;;;;;;5004261;28;20057;-90
2023/08/17 02:30:29;;;;;;;0.90;0.90;;;;;;;;;;5014093;28;20033;-89
2023/08/17 02:32:55;;;;;;;0.98;0.98;;;;;;;;;;5014481;28;20030;-89
2023/08/17 02:35:21;;;;;;;1.00;1.00;;;;;;;;;;5006150;28;20092;-89
2023/08/17 02:37:48;;;;;;;0.77;0.73;;;;;;;;;;5027183;28;20026;-90
2023/08/17 02:40:14;;;;;;;1.40;0.93;;;;;;;;;;5013502;28;20041;-90
2023/08/17 02:42:40;;;;;;;1.52;1.02;;;;;;;;;;5010691;28;20022;-87
2023/08/17 02:45:09;;;;;;;1.08;0.85;;;;;;;;;;5009599;28;20551;-90
2023/08/17 02:47:36;;;;;;;1.13;1.00;;;;;;;;;;5013169;28;20071;-90
2023/08/17 02:50:02;;;;;;;1.02;0.93;;;;;;;;;;5013480;28;20029;-89
2023/08/17 02:52:28;;;;;;;1.13;0.77;;;;;;;;;;5012647;28;20029;-88
2023/08/17 02:54:54;;;;;;;0.88;0.88;;;;;;;;;;5011333;28;20029;-88
2023/08/17 02:57:20;;;;;;;3.92;0.85;;;;;;;;;;5012028;28;20030;-88
2023/08/17 02:59:47;;;;;;;1.58;0.95;;;;;;;;;;5006891;28;20134;-88
2023/08/17 03:02:13;;;;;;;0.85;0.85;;;;;;;;;;5010866;28;20029;-89
2023/08/17 03:04:40;;;;;;;1.50;1.00;;;;;;;;;;5008936;28;20054;-88
2023/08/17 03:07:06;;;;;;;1.17;1.00;;;;;;;;;;5003750;28;20030;-89
2023/08/17 03:09:32;;;;;;;0.80;0.80;;;;;;;;;;5011799;28;20494;-89
2023/08/17 03:11:58;;;;;;;0.88;0.80;;;;;;;;;;5010895;28;20481;-89
2023/08/17 03:14:24;;;;;;;1.20;1.10;;;;;;;;;;5010705;28;20052;-88
2023/08/17 03:16:50;;;;;;;0.98;0.90;;;;;;;;;;5011719;28;20029;-88
2023/08/17 03:19:17;;;;;;;1.55;1.02;;;;;;;;;;5011444;28;20030;-89
2023/08/17 03:21:43;;;;;;;0.60;0.60;;;;;;;;;;5012564;28;20056;-88
2023/08/17 03:24:10;;;;;;;1.23;0.88;;;;;;;;;;5006855;28;20026;-88
2023/08/17 03:26:36;;;;;;;1.20;1.10;;;;;;;;;;5010174;28;20159;-88
2023/08/17 03:29:02;;;;;;;1.75;0.98;;;;;;;;;;5009899;28;20479;-88
2023/08/17 03:31:28;;;;;;;1.13;1.00;;;;;;;;;;5005182;28;20030;-89
2023/08/17 03:33:55;;;;;;;1.00;1.00;;;;;;;;;;5012348;28;20018;-90
2023/08/17 03:36:21;;;;;;;1.20;0.95;;;;;;;;;;5006074;28;20029;-90
2023/08/17 03:38:47;;;;;;;0.60;0.60;;;;;;;;;;5011189;28;20021;-89
2023/08/17 03:41:13;;;;;;;1.00;0.90;;;;;;;;;;5013610;28;20223;-89
2023/08/17 03:43:39;;;;;;;0.73;0.73;;;;;;;;;;5010778;28;20030;-89
2023/08/17 03:46:05;;;;;;;1.05;0.95;;;;;;;;;;5013895;28;20516;-89
2023/08/17 03:48:31;;;;;;;0.82;0.80;;;;;;;;;;5013766;28;20495;-89
2023/08/17 03:50:57;;;;;;;1.35;1.00;;;;;;;;;;5011445;28;20026;-90
2023/08/17 03:53:23;;;;;;;2.72;0.80;;;;;;;;;;5012422;28;20026;-89
2023/08/17 03:55:50;;;;;;;1.48;0.70;;;;;;;;;;5010437;28;20022;-89
2023/08/17 03:58:16;;;;;;;1.48;0.95;;;;;;;;;;5011666;28;20022;-88
2023/08/17 04:00:43;;;;;;;0.80;0.80;;;;;;;;;;5011762;28;20096;-89
2023/08/17 04:03:09;;;;;;;0.60;0.60;;;;;;;;;;5012139;28;20021;-90
2023/08/17 04:05:35;;;;;;;1.92;1.30;;;;;;;;;;5006916;28;20332;-90
2023/08/17 04:08:04;;;;;;;1.23;1.02;;;;;;;;;;5012191;28;20061;-88
2023/08/17 04:10:30;;;;;;;0.75;0.75;;;;;;;;;;5010560;28;20026;-89
2023/08/17 04:12:57;;;;;;;1.15;1.00;;;;;;;;;;5006512;28;20038;-90
2023/08/17 04:15:23;;;;;;;0.85;0.82;;;;;;;;;;5011130;28;20041;-89
2023/08/17 04:17:49;;;;;;;1.13;1.02;;;;;;;;;;5012260;28;20033;-91
2023/08/17 04:20:15;;;;;;;0.63;0.63;;;;;;;;;;5006204;28;20533;-89
2023/08/17 04:22:45;;;;;;;0.60;0.60;;;;;;;;;;5008968;28;20294;-89
2023/08/17 04:25:12;;;;;;;0.63;0.63;;;;;;;;;;5001245;28;20029;-89
2023/08/17 04:27:38;;;;;;;1.20;0.90;;;;;;;;;;5010701;28;20041;-89
2023/08/17 04:30:04;;;;;;;0.82;0.82;;;;;;;;;;5010911;28;20042;-89
2023/08/17 04:32:30;;;;;;;1.60;0.80;;;;;;;;;;5002837;28;20041;-89
2023/08/17 04:35:01;;;;;;;0.88;0.82;;;;;;;;;;5007448;28;20033;-89
2023/08/17 04:37:27;;;;;;;0.70;0.70;;;;;;;;;;5005023;28;20114;-89
2023/08/17 04:39:53;;;;;;;1.00;0.80;;;;;;;;;;5008582;28;20280;-89
2023/08/17 04:45:12;;;;;;;0.80;0.80;;;;;;;;;;5003843;28;20399;-90
2023/08/17 04:47:39;;;;;;;0.85;0.85;;;;;;;;;;5006022;28;20060;-85
2023/08/17 04:50:09;;;;;;;0.70;0.70;;;;;;;;;;5005158;28;20128;-89
2023/08/17 04:52:35;;;;;;;0.80;0.80;;;;;;;;;;5004992;28;20148;-88
2023/08/17 04:55:01;;;;;;;1.23;1.02;;;;;;;;;;5005807;28;20109;-83
2023/08/17 04:57:28;;;;;;;2.70;1.10;;;;;;;;;;5003230;28;20474;-84
2023/08/17 04:59:53;;;;;;;1.27;1.17;;;;;;;;;;5007882;28;20042;-88
2023/08/17 05:02:19;;;;;;;1.17;0.95;;;;;;;;;;5009568;28;20029;-89
2023/08/17 05:04:47;;;;;;;1.50;1.00;;;;;;;;;;5005806;28;20037;-91
2023/08/17 05:07:13;;;;;;;1.17;1.00;;;;;;;;;;5006272;28;20091;-76
2023/08/17 05:09:38;;;;;;;1.15;1.00;;;;;;;;;;5005642;28;20490;-75
2023/08/17 05:12:05;;;;;;;2.40;1.10;;;;;;;;;;5006810;28;20037;-76
2023/08/17 05:14:31;;;;;;;2.38;1.10;;;;;;;;;;5008615;28;20030;-75
2023/08/17 05:16:57;;;;;;;1.65;1.35;;;;;;;;;;5006048;28;20026;-77
2023/08/17 05:19:23;;;;;;;2.00;1.23;;;;;;;;;;5007825;28;20524;-75
2023/08/17 05:21:51;;;;;;;2.45;1.00;;;;;;;;;;5006198;28;20037;-76
2023/08/17 05:24:17;;;;;;;2.00;1.20;;;;;;;;;;5008885;28;20029;-78
2023/08/17 05:26:44;;;;;;;4.05;1.13;;;;;;;;;;5006883;28;20026;-79
2023/08/17 05:29:10;;;;;;;1.48;1.05;;;;;;;;;;5004251;28;20117;-81
2023/08/17 05:31:36;;;;;;;1.77;1.50;;;;;;;;;;5006909;28;20673;-79
2023/08/17 05:34:02;;;;;;;2.55;1.60;;;;;;;;;;5008090;28;20065;-78
2023/08/17 05:36:28;;;;;;;0.82;0.82;;;;;;;;;;5008430;28;20022;-79
2023/08/17 05:38:53;;;;;;;3.05;1.35;;;;;;;;;;5008471;28;20454;-79
2023/08/17 05:41:19;;;;;;;3.53;1.25;;;;;;;;;;5007767;28;20037;-79
2023/08/17 05:43:46;;;;;;;1.30;1.20;;;;;;;;;;5005221;28;20030;-74
2023/08/17 05:46:12;;;;;;;4.03;1.05;;;;;;;;;;5004447;28;20025;-78
2023/08/17 05:48:38;;;;;;;1.48;1.38;;;;;;;;;;5005181;28;20060;-78
2023/08/17 05:51:04;;;;;;;1.45;1.10;;;;;;;;;;5006147;28;20030;-77
2023/08/17 05:53:30;;;;;;;2.33;1.23;;;;;;;;;;5005170;28;20022;-78
2023/08/17 05:55:56;;;;;;;5.30;1.25;;;;;;;;;;5002416;28;20026;-78
2023/08/17 05:58:22;;;;;;;1.10;1.00;;;;;;;;;;5006055;28;20025;-77
2023/08/17 06:00:48;;;;;;;3.70;1.40;;;;;;;;;;5002929;28;20579;-78
2023/08/17 06:03:13;;;;;;;1.15;1.05;;;;;;;;;;5003050;28;20037;-81
2023/08/17 06:05:40;;;;;;;3.40;1.00;;;;;;;;;;5002643;28;20033;-76
2023/08/17 06:08:06;;;;;;;1.40;1.08;;;;;;;;;;5005074;28;20089;-77
2023/08/17 06:10:32;;;;;;;1.73;1.00;;;;;;;;;;5000765;28;20029;-76
2023/08/17 06:12:58;;;;;;;3.15;1.17;;;;;;;;;;4999869;28;20022;-79
2023/08/17 06:15:24;;;;;;;1.27;1.10;;;;;;;;;;4996669;28;20426;-76
2023/08/17 06:17:51;;;;;;;1.13;0.98;;;;;;;;;;5001084;28;20029;-76
2023/08/17 06:20:17;;;;;;;1.25;0.90;;;;;;;;;;5008091;28;20068;-77
2023/08/17 06:22:43;;;;;;;0.90;0.90;;;;;;;;;;5004571;28;20026;-76
2023/08/17 06:25:09;;;;;;;1.48;1.13;;;;;;;;;;4997141;28;20029;-76
2023/08/17 06:27:35;;;;;;;1.30;1.20;;;;;;;;;;5006890;28;20310;-76
2023/08/17 06:30:02;;;;;;;1.63;1.20;;;;;;;;;;5001564;28;20034;-76
2023/08/17 06:32:28;;;;;;;2.95;1.08;;;;;;;;;;5005266;28;20034;-76
2023/08/17 06:34:54;;;;;;;2.42;1.20;;;;;;;;;;5007597;28;20030;-77
2023/08/17 06:37:20;;;;;;;1.58;1.00;;;;;;;;;;5006295;28;20076;-77
2023/08/17 06:39:46;;;;;;;7.75;1.58;;;;;;;;;;5003923;28;20030;-76
2023/08/17 06:42:12;;;;;;;5.57;1.35;;;;;;;;;;5004224;28;20449;-76
2023/08/17 06:44:38;;;;;;;1.38;1.27;;;;;;;;;;5004209;28;20217;-75
2023/08/17 06:47:04;;;;;;;1.85;1.10;;;;;;;;;;5006939;28;20037;-76
2023/08/17 06:49:31;;;;;;;2.03;1.38;;;;;;;;;;5006934;28;20034;-79
2023/08/17 06:51:57;;;;;;;0.75;0.75;;;;;;;;;;5006522;28;20036;-74
2023/08/17 06:54:23;;;;;;;3.47;1.58;;;;;;;;;;5006457;28;20030;-76
2023/08/17 06:56:49;;;;;;;2.85;1.02;;;;;;;;;;5008177;28;20164;-79
2023/08/17 06:59:15;;;;;;;6.97;1.60;;;;;;;;;;5001677;28;20042;-75
2023/08/17 07:01:41;;;;;;;1.20;1.10;;;;;;;;;;5008298;28;20033;-76
2023/08/17 07:04:07;;;;;;;1.45;1.27;;;;;;;;;;5015813;28;20044;-75
2023/08/17 07:06:33;;;;;;;1.20;1.10;;;;;;;;;;5006456;28;20028;-77
2023/08/17 07:08:59;;;;;;;2.42;1.02;;;;;;;;;;5007350;28;20030;-74
2023/08/17 07:11:25;;;;;;;1.30;1.20;;;;;;;;;;5004882;28;20044;-76
2023/08/17 07:13:51;;;;;;;0.85;0.85;;;;;;;;;;5007426;28;20025;-76
2023/08/17 07:16:17;;;;;;;1.85;1.23;;;;;;;;;;5009363;28;20026;-76
2023/08/17 07:18:43;;;;;;;1.30;1.10;;;;;;;;;;5009685;28;20033;-75
2023/08/17 07:21:09;;;;;;;1.35;1.25;;;;;;;;;;5008475;28;20038;-76
2023/08/17 07:23:35;;;;;;;7.78;1.70;;;;;;;;;;5003789;28;20080;-76
2023/08/17 07:26:01;;;;;;;3.40;1.40;;;;;;;;;;5009543;28;20034;-75
2023/08/17 07:28:28;;;;;;;2.95;1.50;;;;;;;;;;5007869;28;20030;-76
2023/08/17 07:30:54;;;;;;;5.35;1.73;;;;;;;;;;5006936;28;20030;-76
2023/08/17 07:33:20;;;;;;;1.75;1.13;;;;;;;;;;5010674;28;20040;-77
2023/08/17 07:35:46;;;;;;;4.85;1.30;;;;;;;;;;5008023;28;20057;-75
2023/08/17 07:38:12;;;;;;;6.38;2.40;;;;;;;;;;4997391;28;20523;-75
2023/08/17 07:40:38;;;;;;;3.13;1.23;;;;;;;;;;5000972;28;20014;-75
2023/08/17 07:43:04;;;;;;;1.13;0.95;;;;;;;;;;5006433;28;20037;-76
2023/08/17 07:45:30;;;;;;;1.75;1.20;;;;;;;;;;5004520;28;20502;-75
2023/08/17 07:47:56;;;;;;;3.92;1.10;;;;;;;;;;5005591;28;20034;-76
2023/08/17 07:50:22;;;;;;;1.63;1.20;;;;;;;;;;5002770;28;20113;-76
2023/08/17 07:52:51;;;;;;;0.90;0.80;;;;;;;;;;5002704;28;20030;-76
2023/08/17 07:55:17;;;;;;;3.95;1.67;;;;;;;;;;5000203;28;20612;-76
2023/08/17 07:57:43;;;;;;;2.22;1.48;;;;;;;;;;5003527;28;20056;-76
2023/08/17 08:00:09;;;;;;;1.85;1.05;;;;;;;;;;4999093;28;20050;-74
2023/08/17 08:02:35;;;;;;;7.13;1.48;;;;;;;;;;5002063;28;20092;-74
2023/08/17 08:05:01;;;;;;;1.02;1.02;;;;;;;;;;5004222;28;20033;-74
2023/08/17 08:07:27;;;;;;;1.20;1.10;;;;;;;;;;5002949;28;20036;-75
2023/08/17 08:09:53;;;;;;;1.40;1.30;;;;;;;;;;5004096;28;20052;-73
2023/08/17 08:12:19;;;;;;;2.05;1.60;;;;;;;;;;5007616;28;20025;-73
2023/08/17 08:14:45;;;;;;;3.72;1.23;;;;;;;;;;5007508;28;20327;-73
2023/08/17 08:17:10;;;;;;;2.05;1.38;;;;;;;;;;4997819;28;20030;-73
2023/08/17 08:19:36;;;;;;;2.67;1.52;;;;;;;;;;5002463;28;20056;-74
2023/08/17 08:22:02;;;;;;;3.08;1.30;;;;;;;;;;5001887;28;20038;-74
2023/08/17 08:24:33;;;;;;;1.20;1.10;;;;;;;;;;5003085;28;20076;-74
2023/08/17 08:26:59;;;;;;;2.53;1.10;;;;;;;;;;5005271;28;20040;-74
2023/08/17 08:29:25;;;;;;;8.20;2.45;;;;;;;;;;5008961;28;20037;-74
2023/08/17 08:31:51;;;;;;;2.95;1.98;;;;;;;;;;5002000;28;20094;-75
2023/08/17 08:34:17;;;;;;;1.70;1.60;;;;;;;;;;5002575;28;20037;-74
2023/08/17 08:36:43;;;;;;;3.00;1.98;;;;;;;;;;5000286;28;20030;-75
2023/08/17 08:39:10;;;;;;;1.23;1.00;;;;;;;;;;5001854;28;20174;-75
2023/08/17 08:41:37;;;;;;;2.30;1.40;;;;;;;;;;4997656;28;20041;-76
2023/08/17 08:44:03;;;;;;;1.73;1.27;;;;;;;;;;5004200;28;20054;-75
2023/08/17 08:46:32;;;;;;;1.63;1.33;;;;;;;;;;5005630;28;20026;-76
2023/08/17 08:48:58;;;;;;;1.65;1.30;;;;;;;;;;5009224;28;20483;-75
2023/08/17 08:51:28;;;;;;;2.40;1.80;;;;;;;;;;5002448;28;20441;-75
2023/08/17 08:54:02;;;;;;;15.70;1.70;;;;;;;;;;4994569;28;20053;-76
2023/08/17 08:56:28;;;;;;;8.35;2.00;;;;;;;;;;4999176;28;20709;-75
2023/08/17 08:58:54;;;;;;;2.38;1.33;;;;;;;;;;4996082;28;20564;-75
2023/08/17 09:01:20;;;;;;;1.98;1.80;;;;;;;;;;5000137;28;20046;-75
2023/08/17 09:03:47;;;;;;;2.28;1.38;;;;;;;;;;5003060;28;20033;-76
2023/08/17 09:06:14;;;;;;;2.45;1.58;;;;;;;;;;5001726;28;20087;-76
2023/08/17 09:08:40;;;;;;;3.20;1.80;;;;;;;;;;4993552;28;20030;-75
2023/08/17 09:11:06;;;;;;;2.40;1.70;;;;;;;;;;5003391;28;20041;-76
2023/08/17 09:13:32;;;;;;;1.85;1.38;;;;;;;;;;5003225;28;20037;-75
2023/08/17 09:16:02;;;;;;;0.98;0.98;;;;;;;;;;5006565;28;20113;-75
2023/08/17 09:18:28;;;;;;;2.08;1.33;;;;;;;;;;4995332;28;20025;-76
2023/08/17 09:20:55;;;;;;;2.83;1.38;;;;;;;;;;4994815;28;20422;-76
2023/08/17 09:23:22;;;;;;;2.35;1.70;;;;;;;;;;4997652;28;20076;-75
2023/08/17 09:25:49;;;;;;;1.42;1.20;;;;;;;;;;5006295;28;20026;-76
2023/08/17 09:28:16;;;;;;;1.70;1.38;;;;;;;;;;5003250;28;20113;-81
2023/08/17 09:30:59;;;;;;;3.00;1.80;;;;;;;;;;4997553;28;20044;-76
2023/08/17 09:33:26;;;;;;;2.78;1.85;;;;;;;;;;5004462;28;20010;-80
2023/08/17 09:35:52;;;;;;;1.48;1.30;;;;;;;;;;5001223;28;20026;-78
2023/08/17 09:38:19;;;;;;;3.85;1.38;;;;;;;;;;5002066;28;20626;-78
2023/08/17 09:40:45;;;;;;;2.70;1.48;;;;;;;;;;5004231;28;20026;-78
2023/08/17 09:43:12;;;;;;;2.03;1.63;;;;;;;;;;5006904;28;20022;-78
2023/08/17 09:45:39;;;;;;;1.00;1.00;;;;;;;;;;5004383;28;20018;-78
2023/08/17 09:48:05;;;;;;;4.75;1.67;;;;;;;;;;5002051;28;20061;-78
2023/08/17 09:50:31;;;;;;;4.28;1.98;;;;;;;;;;5002896;28;20023;-75
2023/08/17 09:52:57;;;;;;;2.03;1.40;;;;;;;;;;4995018;28;20040;-77
2023/08/17 09:55:23;;;;;;;1.70;1.60;;;;;;;;;;4993921;28;20061;-76
2023/08/17 09:57:52;;;;;;;1.80;1.60;;;;;;;;;;4999116;28;20041;-82
2023/08/17 10:00:20;;;;;;;1.88;1.60;;;;;;;;;;4999125;28;20034;-77
2023/08/17 10:02:49;;;;;;;1.48;1.38;;;;;;;;;;4995433;28;20034;-79
2023/08/17 10:05:17;;;;;;;1.50;1.40;;;;;;;;;;4999783;28;20034;-76
2023/08/17 10:07:44;;;;;;;1.92;1.58;;;;;;;;;;4997782;28;20042;-76
2023/08/17 10:10:10;;;;;;;1.75;1.50;;;;;;;;;;5000438;28;20125;-78
2023/08/17 10:12:49;;;;;;;2.45;1.80;;;;;;;;;;5002728;28;20032;-76
2023/08/17 10:15:16;;;;;;;5.47;1.42;;;;;;;;;;5005209;28;20018;-76
2023/08/17 10:17:50;;;;;;;2.05;1.65;;;;;;;;;;5004969;28;20018;-76
2023/08/17 10:20:16;;;;;;;3.17;2.47;;;;;;;;;;5004534;28;20041;-75
2023/08/17 10:22:42;;;;;;;3.80;1.55;;;;;;;;;;4999711;28;20070;-75
2023/08/17 10:25:11;;;;;;;2.10;1.70;;;;;;;;;;5006587;28;20037;-75
2023/08/17 10:27:37;;;;;;;2.20;1.42;;;;;;;;;;5005643;28;20026;-75
2023/08/17 10:30:04;;;;;;;2.55;1.65;;;;;;;;;;5003262;28;20120;-75
2023/08/17 10:32:30;;;;;;;4.45;1.70;;;;;;;;;;5002816;28;20048;-74
2023/08/17 10:34:56;;;;;;;6.75;3.20;;;;;;;;;;4993558;28;20033;-74
2023/08/17 10:37:24;;;;;;;6.00;1.92;;;;;;;;;;5003964;28;20093;-74
2023/08/17 10:39:51;;;;;;;4.57;1.48;;;;;;;;;;5005673;28;20029;-75
2023/08/17 10:42:31;;;;;;;14.00;3.38;;;;;;;;;;5000865;28;20406;-76
2023/08/17 10:44:57;;;;;;;18.90;4.70;;;;;;;;;;5005424;28;20509;-76
2023/08/17 10:47:31;;;;;;;11.68;2.17;;;;;;;;;;5000788;28;20061;-76
2023/08/17 10:50:04;;;;;;;5.90;1.65;;;;;;;;;;5011227;28;20030;-75
2023/08/17 10:52:31;;;;;;;12.30;2.25;;;;;;;;;;4997369;28;20105;-74
2023/08/17 10:54:59;;;;;;;12.30;1.80;;;;;;;;;;5007056;28;20030;-73
2023/08/17 10:57:26;;;;;;;7.53;2.33;;;;;;;;;;5005371;28;20163;-75
2023/08/17 11:00:10;;;;;;;3.67;2.10;;;;;;;;;;5009231;28;20042;-77
2023/08/17 11:02:38;;;;;;;14.18;1.73;;;;;;;;;;5006251;28;20544;-77
2023/08/17 11:05:04;;;;;;;5.38;1.52;;;;;;;;;;5011407;28;20056;-76
2023/08/17 11:07:43;;;;;;;8.52;3.47;;;;;;;;;;5005514;28;20489;-81
2023/08/17 11:10:18;;;;;;;17.33;4.47;;;;;;;;;;5007327;28;20461;-77
2023/08/17 11:12:45;;;;;;;14.38;3.40;;;;;;;;;;5002796;28;20403;-78
2023/08/17 11:15:11;;;;;;;8.80;2.25;;;;;;;;;;5003316;28;20034;-76
2023/08/17 11:17:37;;;;;;;9.20;4.00;;;;;;;;;;5003404;28;20049;-76
2023/08/17 11:20:03;;;;;;;3.03;2.13;;;;;;;;;;5005552;28;20073;-77
2023/08/17 11:22:29;;;;;;;241.50;25.25;;;;;;;;;;5006216;28;20026;-76
2023/08/17 11:24:55;;;;;;;98.47;10.02;;;;;;;;;;4998939;28;20033;-76
2023/08/17 11:27:21;;;;;;;32.97;7.63;;;;;;;;;;5000431;28;20033;-76
2023/08/17 11:29:47;;;;;;;21.30;3.70;;;;;;;;;;5001235;28;20022;-76
2023/08/17 11:32:17;;;;;;;6.40;2.92;;;;;;;;;;5008418;28;20030;-75
2023/08/17 11:34:43;;;;;;;7.63;2.25;;;;;;;;;;5001146;28;20022;-79
2023/08/17 11:37:11;;;;;;;4.45;1.70;;;;;;;;;;5006697;28;20486;-80
2023/08/17 11:39:38;;;;;;;7.75;2.25;;;;;;;;;;5008644;28;20025;-85
2023/08/17 11:42:04;;;;;;;5.85;1.85;;;;;;;;;;5004364;28;20129;-87
2023/08/17 11:44:30;;;;;;;3.13;1.77;;;;;;;;;;5008259;28;20021;-86
2023/08/17 11:46:56;;;;;;;1.73;1.55;;;;;;;;;;5004615;28;20030;-86
2023/08/17 11:49:23;;;;;;;3.95;2.22;;;;;;;;;;5002753;28;20056;-84
2023/08/17 11:51:49;;;;;;;2.88;1.42;;;;;;;;;;5001386;28;20022;-87
2023/08/17 11:54:15;;;;;;;3.75;1.85;;;;;;;;;;5002393;28;20034;-86
2023/08/17 11:56:42;;;;;;;2.15;1.65;;;;;;;;;;5010841;28;20383;-83
2023/08/17 11:59:13;;;;;;;1.65;1.55;;;;;;;;;;5006343;28;20053;-83
2023/08/17 12:01:39;;;;;;;3.03;1.50;;;;;;;;;;5004071;28;20056;-83
2023/08/17 12:04:06;;;;;;;3.13;2.00;;;;;;;;;;5006783;28;21830;-86
2023/08/17 12:06:32;;;;;;;4.05;2.15;;;;;;;;;;5005737;28;20101;-83
2023/08/17 12:08:58;;;;;;;2.38;1.77;;;;;;;;;;5007994;28;20471;-83
2023/08/17 12:11:24;;;;;;;2.25;2.03;;;;;;;;;;5003506;28;20026;-76
2023/08/17 12:13:54;;;;;;;3.30;1.70;;;;;;;;;;5004661;28;20022;-77
2023/08/17 12:16:20;;;;;;;8.57;1.90;;;;;;;;;;5005447;28;20042;-77
2023/08/17 12:18:50;;;;;;;3.17;2.45;;;;;;;;;;4999681;28;20156;-75
2023/08/17 12:21:16;;;;;;;3.55;1.77;;;;;;;;;;5003134;28;20042;-76
2023/08/17 12:23:42;;;;;;;4.13;2.35;;;;;;;;;;5006061;28;20034;-75
2023/08/17 12:26:08;;;;;;;3.13;2.10;;;;;;;;;;5008918;28;20033;-77
2023/08/17 12:28:34;;;;;;;3.20;2.00;;;;;;;;;;5005620;28;20458;-77
2023/08/17 12:31:01;;;;;;;3.50;2.90;;;;;;;;;;5003641;28;20038;-81
2023/08/17 12:33:27;;;;;;;2.80;2.33;;;;;;;;;;5008702;28;20513;-76
2023/08/17 12:35:58;;;;;;;2.83;2.15;;;;;;;;;;5007348;28;20096;-77
2023/08/17 12:38:24;;;;;;;;;;;;;;;;;;5000105;28;20027;-77
2023/08/17 12:40:50;;;;;;;2.80;2.00;;;;;;;;;;5001808;28;20024;-76
2023/08/17 12:43:16;;;;;;;3.50;2.50;;;;;;;;;;5007163;28;20018;-78
2023/08/17 12:45:42;;;;;;;4.13;2.67;;;;;;;;;;5008580;28;20029;-81
2023/08/17 12:48:08;;;;;;;2.63;2.05;;;;;;;;;;5007181;28;21861;-78
2023/08/17 12:50:34;;;;;;;5.10;2.58;;;;;;;;;;5006153;28;20049;-78
2023/08/17 12:53:00;;;;;;;2.58;1.80;;;;;;;;;;5004689;28;20033;-76
2023/08/17 12:55:26;;;;;;;3.20;2.40;;;;;;;;;;5008075;28;20033;-80
2023/08/17 12:57:52;;;;;;;4.43;2.35;;;;;;;;;;5000164;28;20014;-78
2023/08/17 13:00:18;;;;;;;3.47;2.65;;;;;;;;;;5002778;28;20521;-80
2023/08/17 13:02:46;;;;;;;3.78;2.28;;;;;;;;;;5000689;28;20073;-74
2023/08/17 13:05:12;;;;;;;5.22;2.45;;;;;;;;;;5001981;28;20130;-79
2023/08/17 13:07:38;;;;;;;2.20;2.00;;;;;;;;;;4998689;28;20068;-76
2023/08/17 13:10:04;;;;;;;4.07;2.83;;;;;;;;;;5005727;28;20037;-78
2023/08/17 13:12:31;;;;;;;2.55;2.17;;;;;;;;;;5005106;28;20050;-77
2023/08/17 13:14:57;;;;;;;3.13;2.28;;;;;;;;;;5008010;28;20030;-79
2023/08/17 13:17:23;;;;;;;2.50;2.20;;;;;;;;;;5004305;28;20030;-78
2023/08/17 13:19:52;;;;;;;6.05;2.38;;;;;;;;;;5002272;28;20018;-78
2023/08/17 13:22:18;;;;;;;4.55;2.33;;;;;;;;;;5003797;28;20073;-77
2023/08/17 13:24:43;;;;;;;2.95;2.40;;;;;;;;;;5005173;28;20045;-78
2023/08/17 13:27:09;;;;;;;3.13;2.00;;;;;;;;;;5002266;28;20026;-76
2023/08/17 13:29:35;;;;;;;3.25;2.00;;;;;;;;;;5002597;28;20034;-76
2023/08/17 13:32:01;;;;;;;6.03;2.28;;;;;;;;;;5004318;28;20040;-75
2023/08/17 13:34:27;;;;;;;2.83;2.40;;;;;;;;;;4998683;28;20076;-74
2023/08/17 13:36:53;;;;;;;3.97;2.30;;;;;;;;;;5002307;28;20026;-75
2023/08/17 13:39:19;;;;;;;4.00;2.78;;;;;;;;;;5000940;28;20077;-76
2023/08/17 13:41:45;;;;;;;3.25;2.60;;;;;;;;;;5001981;28;20386;-75
2023/08/17 13:44:11;;;;;;;3.30;2.10;;;;;;;;;;5001013;28;20421;-75
2023/08/17 13:46:37;;;;;;;3.30;2.40;;;;;;;;;;5001450;28;20722;-75
2023/08/17 13:49:04;;;;;;;3.42;2.40;;;;;;;;;;5002395;28;20050;-74
2023/08/17 13:51:30;;;;;;;4.50;2.40;;;;;;;;;;4998876;28;20310;-75
2023/08/17 13:53:56;;;;;;;2.22;1.80;;;;;;;;;;5004639;28;20681;-75
2023/08/17 13:56:22;;;;;;;2.78;2.10;;;;;;;;;;5005007;28;20398;-75
2023/08/17 13:58:48;;;;;;;2.45;1.70;;;;;;;;;;5004690;28;20061;-75
2023/08/17 14:01:14;;;;;;;2.33;1.92;;;;;;;;;;5008477;28;20056;-74
2023/08/17 14:03:42;;;;;;;2.35;1.90;;;;;;;;;;5000435;28;20128;-75
2023/08/17 14:06:08;;;;;;;2.40;2.20;;;;;;;;;;5006544;28;20044;-76
2023/08/17 14:08:34;;;;;;;4.13;2.08;;;;;;;;;;5003944;28;20037;-75
2023/08/17 14:11:00;;;;;;;8.68;2.17;;;;;;;;;;5001819;28;20034;-75
2023/08/17 14:13:26;;;;;;;2.63;1.80;;;;;;;;;;5003058;28;20045;-76
2023/08/17 14:15:55;;;;;;;2.95;1.83;;;;;;;;;;5003663;28;20574;-76
2023/08/17 14:18:21;;;;;;;3.05;1.80;;;;;;;;;;4999282;28;20501;-76
2023/08/17 14:20:47;;;;;;;2.65;2.10;;;;;;;;;;5009617;28;20397;-77
2023/08/17 14:23:13;;;;;;;5.07;2.00;;;;;;;;;;5007337;28;20022;-77
2023/08/17 14:25:39;;;;;;;3.65;2.50;;;;;;;;;;5006693;28;20493;-76
2023/08/17 14:28:15;;;;;;;2.08;1.52;;;;;;;;;;5009340;28;20414;-77
2023/08/17 14:30:41;;;;;;;3.22;2.17;;;;;;;;;;5007776;28;20030;-77
2023/08/17 14:33:07;;;;;;;2.95;2.10;;;;;;;;;;5010899;28;20538;-77
2023/08/17 14:35:33;;;;;;;3.42;2.10;;;;;;;;;;5007469;28;20025;-76
2023/08/17 14:38:00;;;;;;;2.13;1.65;;;;;;;;;;5006735;28;20394;-77
2023/08/17 14:40:26;;;;;;;2.13;1.92;;;;;;;;;;5008241;28;20053;-76
2023/08/17 14:42:55;;;;;;;3.67;2.47;;;;;;;;;;5008739;28;20033;-76